Time;durP1;ratioP1;P1;durP2;ratioP2;P2;SDS_P1;SDS_P2;PMS_P1;PMS_P2;Temp;Humidity;BMP_temperature;BMP_pressure;BME280_temperature;BME280_humidity;BME280_pressure;Samples;Min_cycle;Max_cycle;Signal;HPM_P1;HPM_P2
2022/09/17 00:00:26;;;;;;;;;;;;;;;19.47;42.58;96650.03;4185396;28;5737;-84
2022/09/17 00:02:29;;;;;;;;;;;;;;;19.46;42.51;96659.16;4190816;28;6516;-85
2022/09/17 00:04:33;;;;;;;;;;;;;;;19.39;42.47;96653.19;4186193;28;5716;-84
2022/09/17 00:06:37;;;;;;;;;;;;;;;19.41;42.53;96647.56;4200869;28;5920;-84
2022/09/17 00:08:41;;;;;;;;;;;;;;;19.42;42.44;96657.22;4194252;28;5704;-84
2022/09/17 00:10:44;;;;;;;;;;;;;;;19.43;42.50;96648.13;4191388;28;6695;-83
2022/09/17 00:12:49;;;;;;;;;;;;;;;19.43;42.52;96648.13;4191688;28;5703;-84
2022/09/17 00:14:51;;;;;;;;;;;;;;;19.36;42.72;96644.81;4189798;28;5816;-83
2022/09/17 00:16:54;;;;;;;;;;;;;;;19.31;42.50;96647.47;4194549;28;5815;-84
2022/09/17 00:19:04;;;;;;;;;;;;;;;19.25;42.39;96651.13;4188654;28;5843;-84
2022/09/17 00:21:08;;;;;;;;;;;;;;;19.24;42.46;96660.25;4198406;28;5789;-84
2022/09/17 00:23:12;;;;;;;;;;;;;;;19.27;42.58;96670.47;4199509;28;5893;-83
2022/09/17 00:25:15;;;;;;;;;;;;;;;19.28;42.48;96674.78;4200436;28;5710;-84
2022/09/17 00:27:18;;;;;;;;;;;;;;;19.23;42.36;96682.75;4196231;28;5732;-84
2022/09/17 00:29:22;;;;;;;;;;;;;;;19.24;42.41;96684.34;4196655;28;5783;-84
2022/09/17 00:31:27;;;;;;;;;;;;;;;19.24;42.25;96679.00;4197145;28;5805;-84
2022/09/17 00:33:30;;;;;;;;;;;;;;;19.27;42.61;96683.88;4190856;28;5728;-84
2022/09/17 00:35:33;;;;;;;;;;;;;;;19.27;42.45;96689.25;4196674;28;5778;-84
2022/09/17 00:37:36;;;;;;;;;;;;;;;19.19;42.58;96691.28;4191862;28;6014;-83
2022/09/17 00:39:38;;;;;;;;;;;;;;;19.03;42.48;96686.81;4186954;28;6417;-84
2022/09/17 00:41:42;;;;;;;;;;;;;;;18.98;42.96;96691.28;4189669;28;5123;-84
2022/09/17 00:43:46;;;;;;;;;;;;;;;19.02;42.83;96697.75;4195904;28;5799;-84
2022/09/17 00:45:52;;;;;;;;;;;;;;;19.07;42.69;96700.50;4199462;28;5781;-84
2022/09/17 00:47:58;;;;;;;;;;;;;;;19.05;42.93;96702.63;4199349;28;5912;-83
2022/09/17 00:50:05;;;;;;;;;;;;;;;19.02;42.71;96697.75;4195514;28;5728;-83
2022/09/17 00:52:10;;;;;;;;;;;;;;;18.99;42.72;96701.75;4194413;28;6345;-84
2022/09/17 00:54:13;;;;;;;;;;;;;;;18.96;43.01;96702.25;4188148;28;5818;-84
2022/09/17 00:56:23;;;;;;;;;;;;;;;18.81;43.08;96697.53;4195238;28;5723;-84
2022/09/17 00:58:29;;;;;;;;;;;;;;;18.78;43.12;96698.00;4191304;28;5724;-84
2022/09/17 01:00:32;;;;;;;;;;;;;;;18.82;43.13;96701.81;4196916;28;5918;-84
2022/09/17 01:02:37;;;;;;;;;;;;;;;18.67;43.04;96700.78;4200724;28;7146;-84
2022/09/17 01:04:41;;;;;;;;;;;;;;;18.61;43.12;96703.34;4199844;28;5856;-84
2022/09/17 01:06:55;;;;;;;;;;;;;;;18.50;43.16;96706.94;4199855;28;5798;-84
2022/09/17 01:09:14;;;;;;;;;;;;;;;18.52;43.11;96702.16;4198734;28;5698;-83
2022/09/17 01:11:41;;;;;;;;;;;;;;;18.60;43.01;96712.44;4198421;28;5683;-83
2022/09/17 01:14:14;;;;;;;;;;;;;;;18.52;42.99;96699.47;4195457;28;5806;-84
2022/09/17 01:16:24;;;;;;;;;;;;;;;18.49;42.67;96694.63;4197113;28;6387;-84
2022/09/17 01:18:42;;;;;;;;;;;;;;;18.40;42.99;96695.28;4189645;28;5796;-85
2022/09/17 01:21:26;;;;;;;;;;;;;;;18.30;43.03;96698.59;4194869;28;5766;-84
2022/09/17 01:23:55;;;;;;;;;;;;;;;18.29;42.90;96699.66;4188186;28;5769;-83
2022/09/17 01:26:16;;;;;;;;;;;;;;;18.37;42.92;96709.97;4192028;28;5723;-82
2022/09/17 01:28:32;;;;;;;;;;;;;;;18.41;42.89;96708.41;4188887;28;5769;-83
2022/09/17 01:30:59;;;;;;;;;;;;;;;18.49;42.81;96699.97;4184271;28;5845;-84
2022/09/17 01:33:14;;;;;;;;;;;;;;;18.54;42.89;96707.25;4159455;28;5700;-83
2022/09/17 01:35:24;;;;;;;;;;;;;;;18.57;42.70;96710.28;4193309;28;5697;-84
2022/09/17 01:37:34;;;;;;;;;;;;;;;18.58;42.98;96713.75;4195871;28;5965;-84
2022/09/17 01:39:47;;;;;;;;;;;;;;;18.54;42.97;96713.41;4193255;28;5714;-84
2022/09/17 01:41:57;;;;;;;;;;;;;;;18.55;42.76;96717.72;4196857;28;5695;-83
2022/09/17 01:44:06;;;;;;;;;;;;;;;18.59;43.06;96726.91;4198898;28;5698;-83
2022/09/17 01:46:15;;;;;;;;;;;;;;;18.56;42.92;96727.38;4195162;28;5706;-84
2022/09/17 01:48:27;;;;;;;;;;;;;;;18.49;43.06;96732.09;4189278;28;5695;-84
2022/09/17 01:50:37;;;;;;;;;;;;;;;18.46;43.23;96724.56;4194050;28;5720;-84
2022/09/17 01:52:44;;;;;;;;;;;;;;;18.46;43.13;96721.03;4185429;28;5750;-84
2022/09/17 01:54:49;;;;;;;;;;;;;;;18.50;43.16;96728.34;4196187;28;5833;-83
2022/09/17 01:57:00;;;;;;;;;;;;;;;18.52;43.27;96726.25;4193667;28;5691;-84
2022/09/17 01:59:09;;;;;;;;;;;;;;;18.52;43.15;96720.88;4193056;28;5798;-84
2022/09/17 02:01:18;;;;;;;;;;;;;;;18.39;43.09;96723.91;4191721;28;5863;-84
2022/09/17 02:03:25;;;;;;;;;;;;;;;18.31;43.12;96726.97;4185769;28;5703;-84
2022/09/17 02:05:34;;;;;;;;;;;;;;;18.13;43.10;96727.25;4183936;28;5732;-84
2022/09/17 02:07:42;;;;;;;;;;;;;;;17.89;43.44;96726.53;4190145;28;5799;-83
2022/09/17 02:09:50;;;;;;;;;;;;;;;17.88;43.43;96728.41;4190778;28;5104;-84
2022/09/17 02:11:58;;;;;;;;;;;;;;;17.97;43.38;96732.31;4188680;28;5808;-83
2022/09/17 02:14:06;;;;;;;;;;;;;;;17.86;43.18;96724.34;4189852;28;5724;-83
2022/09/17 02:16:16;;;;;;;;;;;;;;;17.74;43.51;96729.75;4190121;28;6212;-83
2022/09/17 02:18:27;;;;;;;;;;;;;;;17.82;43.34;96737.41;4191293;28;5691;-83
2022/09/17 02:20:39;;;;;;;;;;;;;;;17.89;43.25;96721.19;4187767;28;5786;-83
2022/09/17 02:22:50;;;;;;;;;;;;;;;17.93;42.90;96725.03;4189642;28;5724;-83
2022/09/17 02:25:02;;;;;;;;;;;;;;;17.96;43.06;96725.34;4187847;28;6600;-83
2022/09/17 02:27:12;;;;;;;;;;;;;;;17.96;42.85;96736.03;4193955;28;5686;-83
2022/09/17 02:29:25;;;;;;;;;;;;;;;17.87;42.92;96725.97;4193532;28;5830;-83
2022/09/17 02:31:29;;;;;;;;;;;;;;;17.93;42.88;96722.34;4194474;28;5707;-83
2022/09/17 02:33:34;;;;;;;;;;;;;;;17.93;42.93;96720.47;4198822;28;5803;-83
2022/09/17 02:35:37;;;;;;;;;;;;;;;17.96;42.77;96722.66;4196839;28;5714;-83
2022/09/17 02:37:40;;;;;;;;;;;;;;;17.79;42.64;96732.53;4198619;28;5778;-83
2022/09/17 02:39:43;;;;;;;;;;;;;;;17.65;42.74;96736.50;4190241;28;5826;-83
2022/09/17 02:41:53;;;;;;;;;;;;;;;17.64;42.69;96734.88;4193025;28;5740;-83
2022/09/17 02:44:06;;;;;;;;;;;;;;;17.56;42.83;96735.28;4183652;28;6204;-83
2022/09/17 02:46:28;;;;;;;;;;;;;;;17.65;42.59;96733.84;4186655;28;5790;-83
2022/09/17 02:49:04;;;;;;;;;;;;;;;17.70;42.62;96733.97;4189035;28;5683;-83
2022/09/17 02:51:23;;;;;;;;;;;;;;;17.76;42.43;96738.34;4191416;28;5774;-83
2022/09/17 02:53:37;;;;;;;;;;;;;;;17.60;42.48;96741.78;4184666;28;5723;-83
2022/09/17 02:55:45;;;;;;;;;;;;;;;17.58;42.59;96744.69;4195495;28;5691;-83
2022/09/17 02:58:00;;;;;;;;;;;;;;;17.44;42.48;96740.66;4193410;28;5836;-83
2022/09/17 03:00:09;;;;;;;;;;;;;;;17.45;42.52;96748.44;4188432;28;5775;-84
2022/09/17 03:02:18;;;;;;;;;;;;;;;17.56;42.48;96749.47;4185767;28;5712;-84
2022/09/17 03:04:27;;;;;;;;;;;;;;;17.55;42.27;96749.69;4186335;28;5715;-84
2022/09/17 03:06:30;;;;;;;;;;;;;;;17.61;42.47;96749.53;4186171;28;6517;-84
2022/09/17 03:08:36;;;;;;;;;;;;;;;17.69;42.56;96743.84;4185875;28;5814;-84
2022/09/17 03:10:40;;;;;;;;;;;;;;;17.74;42.06;96746.59;4185984;28;5759;-84
2022/09/17 03:12:43;;;;;;;;;;;;;;;17.69;42.02;96741.19;4186129;28;5720;-84
2022/09/17 03:14:46;;;;;;;;;;;;;;;17.63;42.07;96746.63;4186013;28;5700;-84
2022/09/17 03:16:48;;;;;;;;;;;;;;;17.52;42.06;96736.78;4186017;28;5715;-84
2022/09/17 03:18:51;;;;;;;;;;;;;;;17.54;42.06;96737.38;4184529;28;5776;-84
2022/09/17 03:20:55;;;;;;;;;;;;;;;17.48;41.84;96735.66;4186019;28;5780;-84
2022/09/17 03:22:58;;;;;;;;;;;;;;;17.51;42.11;96737.84;4186045;28;5780;-83
2022/09/17 03:25:01;;;;;;;;;;;;;;;17.58;41.84;96742.00;4185558;28;5712;-84
2022/09/17 03:27:04;;;;;;;;;;;;;;;17.58;41.78;96747.34;4185872;28;5795;-84
2022/09/17 03:29:07;;;;;;;;;;;;;;;17.58;41.70;96757.25;4185805;28;6355;-84
2022/09/17 03:31:09;;;;;;;;;;;;;;;17.58;41.77;96759.91;4184261;28;6481;-83
2022/09/17 03:33:13;;;;;;;;;;;;;;;17.48;41.82;96767.72;4185813;28;5832;-83
2022/09/17 03:35:16;;;;;;;;;;;;;;;17.35;41.87;96758.94;4197933;28;5114;-83
2022/09/17 03:37:26;;;;;;;;;;;;;;;17.46;41.82;96765.28;4202369;28;5803;-83
2022/09/17 03:39:34;;;;;;;;;;;;;;;17.53;41.68;96770.50;4197397;28;5720;-84
2022/09/17 03:41:38;;;;;;;;;;;;;;;17.51;41.50;96770.72;4199983;28;5757;-83
2022/09/17 03:43:41;;;;;;;;;;;;;;;17.52;41.68;96774.22;4193840;28;5822;-84
2022/09/17 03:45:44;;;;;;;;;;;;;;;17.50;41.76;96776.31;4195484;28;5807;-83
2022/09/17 03:47:46;;;;;;;;;;;;;;;17.50;41.76;96776.31;4196644;28;5782;-84
2022/09/17 03:49:51;;;;;;;;;;;;;;;17.48;41.74;96781.91;4188385;28;5728;-84
2022/09/17 03:51:53;;;;;;;;;;;;;;;17.50;41.70;96781.66;4196782;28;5796;-84
2022/09/17 03:53:58;;;;;;;;;;;;;;;17.49;41.67;96782.72;4190039;28;5708;-84
2022/09/17 03:56:02;;;;;;;;;;;;;;;17.43;41.72;96776.44;4194597;28;5213;-84
2022/09/17 03:58:05;;;;;;;;;;;;;;;17.42;41.67;96770.28;4187806;28;7742;-84
2022/09/17 04:00:11;;;;;;;;;;;;;;;17.43;41.64;96774.56;4195931;28;6372;-84
2022/09/17 04:02:14;;;;;;;;;;;;;;;17.46;41.67;96789.34;4199578;28;5893;-84
2022/09/17 04:04:17;;;;;;;;;;;;;;;17.50;41.54;96789.69;4196217;28;5706;-84
2022/09/17 04:06:20;;;;;;;;;;;;;;;17.54;41.68;96782.81;4199567;28;5721;-82
2022/09/17 04:08:23;;;;;;;;;;;;;;;17.57;41.53;96788.50;4192656;28;5761;-84
2022/09/17 04:10:28;;;;;;;;;;;;;;;17.59;41.64;96790.94;4192544;28;5724;-84
2022/09/17 04:12:31;;;;;;;;;;;;;;;17.58;41.66;96790.13;4185260;28;5723;-83
2022/09/17 04:14:33;;;;;;;;;;;;;;;17.56;41.72;96796.75;4187276;28;5814;-83
2022/09/17 04:16:36;;;;;;;;;;;;;;;17.64;41.69;96804.38;4191246;28;5687;-83
2022/09/17 04:18:39;;;;;;;;;;;;;;;17.66;41.72;96802.28;4196593;28;5786;-83
2022/09/17 04:20:42;;;;;;;;;;;;;;;17.68;41.82;96805.56;4194334;28;5699;-83
2022/09/17 04:22:44;;;;;;;;;;;;;;;17.69;41.66;96812.56;4200149;28;5703;-83
2022/09/17 04:24:47;;;;;;;;;;;;;;;17.68;41.75;96810.91;4199925;28;5710;-84
2022/09/17 04:26:51;;;;;;;;;;;;;;;17.69;41.60;96812.56;4200081;28;5687;-83
2022/09/17 04:28:54;;;;;;;;;;;;;;;17.66;41.79;96824.47;4196047;28;5703;-83
2022/09/17 04:30:57;;;;;;;;;;;;;;;17.65;41.77;96827.41;4193623;28;5739;-83
2022/09/17 04:33:00;;;;;;;;;;;;;;;17.62;41.79;96825.19;4199791;28;5703;-83
2022/09/17 04:35:03;;;;;;;;;;;;;;;17.62;41.96;96820.66;4196739;28;5845;-83
2022/09/17 04:37:06;;;;;;;;;;;;;;;17.65;41.94;96824.72;4194224;28;5769;-84
2022/09/17 04:39:09;;;;;;;;;;;;;;;17.64;41.89;96829.25;4197967;28;5797;-84
2022/09/17 04:41:12;;;;;;;;;;;;;;;17.65;41.84;96832.75;4189975;28;5811;-84
2022/09/17 04:43:18;;;;;;;;;;;;;;;17.64;42.02;96828.44;4194753;28;5713;-84
2022/09/17 04:45:21;;;;;;;;;;;;;;;17.63;41.90;96845.53;4192583;28;5809;-84
2022/09/17 04:47:24;;;;;;;;;;;;;;;17.59;42.12;96847.88;4197556;28;5793;-82
2022/09/17 04:49:29;;;;;;;;;;;;;;;17.62;42.19;96854.59;4194982;28;5728;-84
2022/09/17 04:51:32;;;;;;;;;;;;;;;17.61;42.01;96850.31;4190029;28;5736;-83
2022/09/17 04:53:35;;;;;;;;;;;;;;;17.63;41.95;96856.22;4185141;28;5100;-84
2022/09/17 04:55:38;;;;;;;;;;;;;;;17.59;42.14;96844.41;4197182;28;5815;-83
2022/09/17 04:57:46;;;;;;;;;;;;;;;17.59;42.05;96847.88;4196958;28;5715;-84
2022/09/17 04:59:50;;;;;;;;;;;;;;;17.56;42.05;96847.56;4200504;28;5769;-85
2022/09/17 05:01:52;;;;;;;;;;;;;;;17.38;42.13;96846.63;4187462;28;5708;-84
2022/09/17 05:03:55;;;;;;;;;;;;;;;17.37;42.19;96842.34;4189169;28;5727;-84
2022/09/17 05:05:58;;;;;;;;;;;;;;;17.40;42.25;96849.06;4199339;28;5777;-83
2022/09/17 05:08:01;;;;;;;;;;;;;;;17.39;42.10;96850.13;4199103;28;5682;-83
2022/09/17 05:10:06;;;;;;;;;;;;;;;17.39;42.17;96850.13;4195776;28;5723;-84
2022/09/17 05:12:09;;;;;;;;;;;;;;;17.39;42.10;96856.28;4193786;28;5715;-83
2022/09/17 05:14:12;;;;;;;;;;;;;;;17.40;42.11;96862.44;4185382;28;5873;-83
2022/09/17 05:16:17;;;;;;;;;;;;;;;17.43;42.17;96856.59;4200135;28;5726;-83
2022/09/17 05:18:20;;;;;;;;;;;;;;;17.45;41.97;96860.69;4193652;28;5702;-82
2022/09/17 05:20:22;;;;;;;;;;;;;;;17.49;42.08;96865.56;4198481;28;5892;-83
2022/09/17 05:22:25;;;;;;;;;;;;;;;17.46;41.94;96858.84;4193143;28;5691;-83
2022/09/17 05:24:30;;;;;;;;;;;;;;;17.43;42.09;96861.94;4199482;28;5690;-83
2022/09/17 05:26:32;;;;;;;;;;;;;;;17.41;42.05;96861.38;4194243;28;5699;-83
2022/09/17 05:28:38;;;;;;;;;;;;;;;17.40;42.05;96868.59;4195892;28;5699;-84
2022/09/17 05:30:41;;;;;;;;;;;;;;;17.40;41.98;96859.75;4199730;28;5786;-84
2022/09/17 05:32:45;;;;;;;;;;;;;;;17.24;42.12;96871.97;4191377;28;5821;-84
2022/09/17 05:34:49;;;;;;;;;;;;;;;17.20;42.23;96859.31;4195826;28;5698;-84
2022/09/17 05:36:51;;;;;;;;;;;;;;;17.26;42.12;96861.88;4197794;28;6380;-84
2022/09/17 05:38:54;;;;;;;;;;;;;;;17.28;41.95;96867.78;4194796;28;5948;-83
2022/09/17 05:40:59;;;;;;;;;;;;;;;17.31;42.01;96872.66;4200349;28;6399;-83
2022/09/17 05:43:05;;;;;;;;;;;;;;;17.29;42.02;96880.09;4200436;28;5703;-84
2022/09/17 05:45:09;;;;;;;;;;;;;;;17.17;42.06;96876.63;4200673;28;5769;-83
2022/09/17 05:47:12;;;;;;;;;;;;;;;17.14;41.97;96872.56;4200534;28;5690;-83
2022/09/17 05:49:16;;;;;;;;;;;;;;;17.18;42.14;96875.56;4200421;28;5726;-83
2022/09/17 05:51:19;;;;;;;;;;;;;;;17.11;41.98;96875.72;4185014;28;6663;-83
2022/09/17 05:53:22;;;;;;;;;;;;;;;17.15;42.01;96874.19;4183045;28;5799;-83
2022/09/17 05:55:26;;;;;;;;;;;;;;;17.16;42.01;96875.81;4183352;28;5705;-83
2022/09/17 05:57:32;;;;;;;;;;;;;;;17.09;41.92;96871.63;4188289;28;5844;-82
2022/09/17 05:59:35;;;;;;;;;;;;;;;17.11;42.07;96872.22;4183309;28;5756;-85
2022/09/17 06:01:38;;;;;;;;;;;;;;;17.10;42.03;96873.25;4183357;28;5803;-88
2022/09/17 06:03:41;;;;;;;;;;;;;;;17.09;42.04;96871.63;4194486;28;5833;-76
2022/09/17 06:05:53;;;;;;;;;;;;;;;17.01;41.95;96874.66;4183598;28;5811;-83
2022/09/17 06:07:56;;;;;;;;;;;;;;;16.92;42.15;96878.72;4183434;28;5704;-83
2022/09/17 06:09:59;;;;;;;;;;;;;;;16.91;42.06;96882.44;4183228;28;5724;-83
2022/09/17 06:12:02;;;;;;;;;;;;;;;16.78;42.15;96886.13;4193909;28;5759;-83
2022/09/17 06:14:05;;;;;;;;;;;;;;;16.81;42.17;96886.47;4199706;28;5797;-83
2022/09/17 06:16:08;;;;;;;;;;;;;;;16.91;42.14;96893.91;4199945;28;5691;-78
2022/09/17 06:18:11;;;;;;;;;;;;;;;16.99;42.02;96898.94;4200089;28;5758;-78
2022/09/17 06:20:15;;;;;;;;;;;;;;;17.04;42.13;96891.03;4200484;28;5778;-78
2022/09/17 06:22:20;;;;;;;;;;;;;;;17.05;41.86;96886.50;4199585;28;5694;-79
2022/09/17 06:24:23;;;;;;;;;;;;;;;16.83;42.15;96887.06;4184819;28;5819;-80
2022/09/17 06:26:26;;;;;;;;;;;;;;;16.71;42.00;96877.41;4183035;28;5720;-78
2022/09/17 06:28:30;;;;;;;;;;;;;;;16.60;42.03;96882.44;4183612;28;5719;-78
2022/09/17 06:30:32;;;;;;;;;;;;;;;16.41;42.46;96880.88;4183247;28;5720;-78
2022/09/17 06:32:35;;;;;;;;;;;;;;;16.32;42.40;96889.47;4182912;28;5791;-78
2022/09/17 06:34:38;;;;;;;;;;;;;;;16.40;42.32;96889.13;4184089;28;5112;-82
2022/09/17 06:36:41;;;;;;;;;;;;;;;16.51;42.43;96886.47;4186617;28;7727;-81
2022/09/17 06:38:45;;;;;;;;;;;;;;;16.66;42.08;96887.94;4186194;28;5808;-81
2022/09/17 06:40:50;;;;;;;;;;;;;;;16.74;42.14;96888.41;4192210;28;5698;-81
2022/09/17 06:42:57;;;;;;;;;;;;;;;16.74;41.89;96883.09;4202867;28;5868;-80
2022/09/17 06:45:01;;;;;;;;;;;;;;;16.57;42.08;96885.59;4201186;28;5697;-80
2022/09/17 06:47:11;;;;;;;;;;;;;;;16.37;42.28;96893.06;4202857;28;5825;-80
2022/09/17 06:49:16;;;;;;;;;;;;;;;16.45;42.38;96897.28;4202776;28;6476;-80
2022/09/17 06:51:19;;;;;;;;;;;;;;;16.61;42.19;96896.59;4202935;28;6416;-81
2022/09/17 06:53:22;;;;;;;;;;;;;;;16.68;42.13;96900.03;4202165;28;5765;-81
2022/09/17 06:55:27;;;;;;;;;;;;;;;16.67;42.12;96893.03;4200786;28;5691;-81
2022/09/17 06:57:29;;;;;;;;;;;;;;;16.76;42.18;96905.06;4202817;28;5694;-81
2022/09/17 06:59:34;;;;;;;;;;;;;;;16.84;42.12;96907.38;4202822;28;5687;-82
2022/09/17 07:01:36;;;;;;;;;;;;;;;16.82;42.04;96904.13;4202415;28;5761;-81
2022/09/17 07:03:42;;;;;;;;;;;;;;;16.69;42.23;96907.00;4202689;28;5686;-78
2022/09/17 07:05:45;;;;;;;;;;;;;;;16.67;42.18;96909.06;4202411;28;5684;-78
2022/09/17 07:07:48;;;;;;;;;;;;;;;16.66;42.29;96911.97;4202723;28;5691;-78
2022/09/17 07:09:53;;;;;;;;;;;;;;;16.53;42.30;96915.59;4202477;28;5699;-77
2022/09/17 07:11:57;;;;;;;;;;;;;;;16.43;42.47;96907.38;4202464;28;5687;-79
2022/09/17 07:14:00;;;;;;;;;;;;;;;16.51;42.38;96918.50;4200185;28;5710;-80
2022/09/17 07:16:04;;;;;;;;;;;;;;;16.50;42.38;96916.88;4193825;28;5103;-78
2022/09/17 07:18:08;;;;;;;;;;;;;;;16.39;42.65;96930.19;4199021;28;5695;-73
2022/09/17 07:20:12;;;;;;;;;;;;;;;16.11;42.83;96917.44;4193594;28;5874;-75
2022/09/17 07:22:15;;;;;;;;;;;;;;;16.17;42.67;96921.84;4195256;28;5715;-77
2022/09/17 07:24:18;;;;;;;;;;;;;;;16.35;42.61;96929.84;4201280;28;5683;-78
2022/09/17 07:26:21;;;;;;;;;;;;;;;16.50;42.39;96926.75;4200620;28;5691;-75
2022/09/17 07:28:25;;;;;;;;;;;;;;;16.57;42.66;96935.47;4202291;28;5868;-76
2022/09/17 07:30:28;;;;;;;;;;;;;;;16.53;42.74;96942.28;4189294;28;5675;-76
2022/09/17 07:32:31;;;;;;;;;;;;;;;16.57;42.52;96940.81;4185770;28;5695;-78
2022/09/17 07:34:35;;;;;;;;;;;;;;;16.55;42.61;96945.56;4191824;28;5694;-74
2022/09/17 07:36:39;;;;;;;;;;;;;;;16.68;42.56;96944.59;4188406;28;5845;-79
2022/09/17 07:38:42;;;;;;;;;;;;;;;16.61;42.59;96944.66;4186376;28;6673;-75
2022/09/17 07:40:54;;;;;;;;;;;;;;;16.71;42.46;96947.63;4185545;28;5833;-77
2022/09/17 07:42:57;;;;;;;;;;;;;;;16.81;42.39;96945.22;4190711;28;5703;-76
2022/09/17 07:45:02;;;;;;;;;;;;;;;16.91;42.45;96950.00;4201526;28;5691;-77
2022/09/17 07:47:05;;;;;;;;;;;;;;;17.00;42.24;96947.81;4201966;28;5702;-77
2022/09/17 07:49:08;;;;;;;;;;;;;;;17.00;42.39;96947.81;4200409;28;5707;-78
2022/09/17 07:51:15;;;;;;;;;;;;;;;17.06;42.18;96947.69;4201658;28;5710;-78
2022/09/17 07:53:18;;;;;;;;;;;;;;;17.12;42.24;96951.31;4201779;28;5785;-78
2022/09/17 07:55:22;;;;;;;;;;;;;;;17.14;42.02;96949.22;4201459;28;5806;-78
2022/09/17 07:57:25;;;;;;;;;;;;;;;17.02;42.26;96957.22;4201818;28;5698;-77
2022/09/17 07:59:28;;;;;;;;;;;;;;;17.01;42.36;96960.13;4200160;28;5759;-78
2022/09/17 08:01:35;;;;;;;;;;;;;;;16.98;42.21;96965.91;4201410;28;5706;-78
2022/09/17 08:03:39;;;;;;;;;;;;;;;17.09;42.00;96962.44;4201854;28;5694;-78
2022/09/17 08:05:42;;;;;;;;;;;;;;;17.10;42.03;96964.06;4197536;28;5776;-77
2022/09/17 08:07:51;;;;;;;;;;;;;;;17.06;42.08;96957.56;4184953;28;5724;-78
2022/09/17 08:09:54;;;;;;;;;;;;;;;17.01;42.09;96971.63;4184633;28;6519;-78
2022/09/17 08:11:58;;;;;;;;;;;;;;;17.06;42.03;96965.56;4184791;28;5736;-78
2022/09/17 08:14:01;;;;;;;;;;;;;;;17.13;41.91;96980.47;4184721;28;5708;-77
2022/09/17 08:16:06;;;;;;;;;;;;;;;17.11;41.85;96979.88;4184995;28;5803;-77
2022/09/17 08:18:10;;;;;;;;;;;;;;;17.14;42.00;96981.28;4184733;28;5712;-77
2022/09/17 08:20:17;;;;;;;;;;;;;;;17.17;41.91;96988.81;4184700;28;5842;-78
2022/09/17 08:22:20;;;;;;;;;;;;;;;17.26;41.86;96981.28;4184245;28;5708;-76
2022/09/17 08:24:22;;;;;;;;;;;;;;;17.26;41.70;96997.31;4198775;28;5775;-77
2022/09/17 08:26:26;;;;;;;;;;;;;;;16.97;42.02;96993.66;4201263;28;5679;-76
2022/09/17 08:28:31;;;;;;;;;;;;;;;16.83;42.11;96990.38;4201136;28;5773;-76
2022/09/17 08:30:33;;;;;;;;;;;;;;;16.98;42.09;96993.41;4201072;28;5818;-76
2022/09/17 08:32:36;;;;;;;;;;;;;;;17.10;41.99;96996.94;4199869;28;5711;-77
2022/09/17 08:34:41;;;;;;;;;;;;;;;17.08;42.08;96992.84;4194077;28;5684;-77
2022/09/17 08:36:44;;;;;;;;;;;;;;;17.02;41.95;96993.78;4198141;28;5805;-77
2022/09/17 08:38:48;;;;;;;;;;;;;;;16.97;41.93;96999.81;4200950;28;5711;-76
2022/09/17 08:41:00;;;;;;;;;;;;;;;16.88;41.96;97007.34;4201147;28;5702;-76
2022/09/17 08:43:04;;;;;;;;;;;;;;;16.88;41.79;96993.19;4201118;28;5853;-77
2022/09/17 08:45:17;;;;;;;;;;;;;;;16.85;41.67;97009.63;4201228;28;5707;-77
2022/09/17 08:47:28;;;;;;;;;;;;;;;16.76;41.85;97006.50;4200825;28;5772;-79
2022/09/17 08:49:35;;;;;;;;;;;;;;;16.68;41.63;97012.16;4201250;28;6361;-77
2022/09/17 08:51:50;;;;;;;;;;;;;;;16.67;41.77;97007.81;4200503;28;5786;-76
2022/09/17 08:54:05;;;;;;;;;;;;;;;16.75;41.64;97007.50;4200756;28;5821;-77
2022/09/17 08:56:11;;;;;;;;;;;;;;;16.94;41.40;97010.13;4199974;28;5714;-77
2022/09/17 08:58:32;;;;;;;;;;;;;;;17.07;41.23;97009.94;4200136;28;5776;-78
2022/09/17 09:00:49;;;;;;;;;;;;;;;17.11;41.11;97003.91;4200866;28;5706;-77
2022/09/17 09:03:16;;;;;;;;;;;;;;;17.26;40.92;97008.81;4200376;28;5691;-77
2022/09/17 09:05:29;;;;;;;;;;;;;;;17.31;40.88;97011.59;4199445;28;5714;-77
2022/09/17 09:07:38;;;;;;;;;;;;;;;17.35;40.78;97017.31;4184153;28;5713;-77
2022/09/17 09:09:48;;;;;;;;;;;;;;;17.29;40.71;97012.88;4182826;28;5838;-77
2022/09/17 09:12:01;;;;;;;;;;;;;;;17.28;40.76;97014.75;4192407;28;5690;-77
2022/09/17 09:14:11;;;;;;;;;;;;;;;17.33;40.70;97016.75;4199177;28;5706;-77
2022/09/17 09:16:17;;;;;;;;;;;;;;;17.30;40.66;97023.34;4200699;28;5698;-77
2022/09/17 09:18:22;;;;;;;;;;;;;;;17.34;40.52;97021.03;4200245;28;5722;-77
2022/09/17 09:20:32;;;;;;;;;;;;;;;17.36;40.49;97017.09;4199120;28;5695;-77
2022/09/17 09:22:46;;;;;;;;;;;;;;;17.36;40.51;97019.75;4200322;28;5710;-76
2022/09/17 09:25:02;;;;;;;;;;;;;;;17.43;40.38;97015.09;4200329;28;5070;-76
2022/09/17 09:27:16;;;;;;;;;;;;;;;17.41;40.34;97019.06;4200264;28;5753;-77
2022/09/17 09:29:29;;;;;;;;;;;;;;;17.41;40.48;97014.53;4200494;28;5723;-76
2022/09/17 09:31:47;;;;;;;;;;;;;;;17.56;40.36;97018.63;4200261;28;5683;-76
2022/09/17 09:33:52;;;;;;;;;;;;;;;17.61;40.26;97019.53;4199806;28;5828;-77
2022/09/17 09:35:55;;;;;;;;;;;;;;;17.53;40.39;97016.38;4183497;28;5712;-77
2022/09/17 09:38:07;;;;;;;;;;;;;;;17.55;40.47;97017.78;4183702;28;5902;-78
2022/09/17 09:40:24;;;;;;;;;;;;;;;17.56;40.42;97011.41;4183468;28;5724;-77
2022/09/17 09:42:30;;;;;;;;;;;;;;;17.58;40.32;97013.84;4183657;28;5798;-78
2022/09/17 09:44:35;;;;;;;;;;;;;;;17.71;40.54;97016.31;4183856;28;5830;-77
2022/09/17 09:47:03;;;;;;;;;;;;;;;17.82;40.33;97012.03;4182239;28;5879;-78
2022/09/17 09:49:16;;;;;;;;;;;;;;;17.98;40.23;97013.97;4183466;28;5723;-77
2022/09/17 09:51:29;;;;;;;;;;;;;;;18.13;40.04;97016.19;4194767;28;5727;-77
2022/09/17 09:53:42;;;;;;;;;;;;;;;18.26;39.99;97026.63;4184395;28;5811;-76
2022/09/17 09:56:02;;;;;;;;;;;;;;;18.30;40.01;97020.53;4183266;28;5704;-76
2022/09/17 09:58:23;;;;;;;;;;;;;;;18.41;39.85;97018.06;4182099;28;6377;-77
2022/09/17 10:00:29;;;;;;;;;;;;;;;18.49;39.87;97020.41;4183795;28;5724;-77
2022/09/17 10:02:34;;;;;;;;;;;;;;;18.54;39.73;97026.66;4192832;28;5832;-77
2022/09/17 10:04:37;;;;;;;;;;;;;;;18.59;39.75;97023.28;4200271;28;5695;-77
2022/09/17 10:06:40;;;;;;;;;;;;;;;18.59;39.68;97032.13;4188007;28;5812;-78
2022/09/17 10:09:12;;;;;;;;;;;;;;;18.54;39.66;97028.50;4198958;28;5761;-77
2022/09/17 10:11:22;;;;;;;;;;;;;;;18.49;39.58;97034.59;4203730;28;5723;-77
2022/09/17 10:13:25;;;;;;;;;;;;;;;18.46;39.60;97028.88;4203395;28;5694;-77
2022/09/17 10:15:29;;;;;;;;;;;;;;;18.50;39.63;97038.88;4202421;28;6042;-77
2022/09/17 10:17:32;;;;;;;;;;;;;;;18.56;39.82;97019.19;4203303;28;5702;-77
2022/09/17 10:19:35;;;;;;;;;;;;;;;18.54;39.60;97029.31;4203476;28;5686;-77
2022/09/17 10:21:44;;;;;;;;;;;;;;;18.40;39.41;97022.63;4203203;28;5703;-78
2022/09/17 10:23:51;;;;;;;;;;;;;;;18.44;39.50;97029.13;4202165;28;5763;-76
2022/09/17 10:25:56;;;;;;;;;;;;;;;18.45;39.44;97025.38;4203533;28;5706;-77
2022/09/17 10:28:01;;;;;;;;;;;;;;;18.47;39.32;97027.84;4203206;28;5799;-77
2022/09/17 10:30:19;;;;;;;;;;;;;;;18.31;39.48;97026.72;4203378;28;5722;-76
2022/09/17 10:32:23;;;;;;;;;;;;;;;18.32;39.29;97021.13;4203271;28;5694;-76
2022/09/17 10:34:28;;;;;;;;;;;;;;;18.40;39.29;97024.47;4199069;28;5720;-75
2022/09/17 10:36:43;;;;;;;;;;;;;;;18.50;39.17;97027.38;4198854;28;6514;-76
2022/09/17 10:38:46;;;;;;;;;;;;;;;18.54;38.96;97018.59;4203039;28;5054;-77
2022/09/17 10:40:50;;;;;;;;;;;;;;;18.54;38.75;97023.97;4202618;28;7667;-77
2022/09/17 10:43:31;;;;;;;;;;;;;;;18.41;38.91;97018.06;4200882;28;5793;-78
2022/09/17 10:45:40;;;;;;;;;;;;;;;18.48;38.78;97019.56;4186588;28;5818;-78
2022/09/17 10:47:44;;;;;;;;;;;;;;;18.53;38.82;97025.03;4186249;28;5807;-79
2022/09/17 10:49:49;;;;;;;;;;;;;;;18.46;38.77;97031.56;4186078;28;5787;-79
2022/09/17 10:51:52;;;;;;;;;;;;;;;18.42;38.65;97028.53;4191356;28;5765;-78
2022/09/17 10:54:17;;;;;;;;;;;;;;;18.47;38.56;97028.66;4202375;28;5729;-78
2022/09/17 10:56:28;;;;;;;;;;;;;;;18.47;38.54;97023.31;4188734;28;5713;-78
2022/09/17 10:58:41;;;;;;;;;;;;;;;18.38;38.60;97013.22;4186359;28;5716;-80
2022/09/17 11:00:55;;;;;;;;;;;;;;;18.50;38.69;97022.81;4186008;28;5717;-78
2022/09/17 11:03:18;;;;;;;;;;;;;;;18.56;38.48;97029.06;4185880;28;5725;-79
2022/09/17 11:05:38;;;;;;;;;;;;;;;18.61;38.45;97024.66;4201247;28;5702;-79
2022/09/17 11:07:49;;;;;;;;;;;;;;;18.64;38.41;97028.75;4186220;28;5704;-79
2022/09/17 11:09:56;;;;;;;;;;;;;;;18.57;38.31;97028.88;4185594;28;5802;-79